Cincinnati North Kentucky

Airport
ICAO code: 
KCVG
Summary
ICAO Region: 
NAM
Territory: 
Location: 
Cincinnati, Kentucky,
Elevation: 
896 ft
Coordinates: 
Aerial View: 
39° 6' 11.999" N, 84° 25' 8.011" W
Airport BS: 
Bird Strike
Metar
Observation
KCVG 250852Z 34013KT 9SM OVC018 M03/M07 A2996 RMK AO2 SLP149 T10281072 53021
Station
Covington / Cincinnati, Cincinnati / Northern Kentucky International Airport
Date/Time
2022-01-25 08:52:00
Wind direction
340°
Wind speed
13 kts
Lowest cloud amount
overcast
Temperature
-2.8°C
Dew point
-7.2°C
Humidity
71%
Weather condition
n/a

Description

Airport serving Cincinnati, Kentucky,USA.

Climatology

Humid “subtropical” climate (Köppen climate classification Cfa) - characterized by hot, humid summers and cool winters. Significant amounts of precipitation occur in all seasons in most areas. Winter rainfall (and sometimes snowfall) is associated with large storms that the westerlies steer from west to east. Most summer rainfall occurs during thunderstorms.

Runways

Designator Length Width Surface Rops
18R/36L 2438 46 CON Yes/Yes
18L/36R 3048 46 CON Yes/Yes
18C/36C 3353 46 PEM Yes/Yes
9/27 3658 46 PEM Yes/Yes
Airport map: 
Aerial View: 

Accidents and Serious Incidents at or in the vicinity of KCVG

SKYbrary Partners:

Safety knowledge contributed by: